sensor_id;sensor_type;location;lat;lon;timestamp;temperature;humidity
9730;DHT22;4904;49.152;11.004;2023-01-29T00:01:15;-0.30;99.90
9730;DHT22;4904;49.152;11.004;2023-01-29T00:03:42;-0.20;99.90
9730;DHT22;4904;49.152;11.004;2023-01-29T00:06:09;-0.30;99.90
9730;DHT22;4904;49.152;11.004;2023-01-29T00:08:38;-0.30;99.90
9730;DHT22;4904;49.152;11.004;2023-01-29T00:11:06;-0.20;99.90
9730;DHT22;4904;49.152;11.004;2023-01-29T00:13:34;-0.20;99.90
9730;DHT22;4904;49.152;11.004;2023-01-29T00:16:02;-0.20;99.90
9730;DHT22;4904;49.152;11.004;2023-01-29T00:18:30;-0.20;99.90
9730;DHT22;4904;49.152;11.004;2023-01-29T00:20:57;0.10;99.90
9730;DHT22;4904;49.152;11.004;2023-01-29T00:23:25;0.00;99.90
9730;DHT22;4904;49.152;11.004;2023-01-29T00:25:52;0.00;99.90
9730;DHT22;4904;49.152;11.004;2023-01-29T00:28:19;0.10;99.90
9730;DHT22;4904;49.152;11.004;2023-01-29T00:30:46;0.20;99.90
9730;DHT22;4904;49.152;11.004;2023-01-29T00:33:13;0.20;99.90
9730;DHT22;4904;49.152;11.004;2023-01-29T00:35:42;0.20;99.90
9730;DHT22;4904;49.152;11.004;2023-01-29T00:38:09;0.20;99.90
9730;DHT22;4904;49.152;11.004;2023-01-29T00:40:37;0.20;99.90
9730;DHT22;4904;49.152;11.004;2023-01-29T00:43:22;0.20;99.90
9730;DHT22;4904;49.152;11.004;2023-01-29T00:46:06;0.20;99.90
9730;DHT22;4904;49.152;11.004;2023-01-29T00:48:33;0.00;99.90
9730;DHT22;4904;49.152;11.004;2023-01-29T00:51:02;0.00;99.90
9730;DHT22;4904;49.152;11.004;2023-01-29T00:53:29;-0.20;99.90
9730;DHT22;4904;49.152;11.004;2023-01-29T00:55:56;-0.70;99.90
9730;DHT22;4904;49.152;11.004;2023-01-29T00:58:23;-0.70;99.90
9730;DHT22;4904;49.152;11.004;2023-01-29T01:00:53;-0.60;99.90
9730;DHT22;4904;49.152;11.004;2023-01-29T01:03:21;-0.50;99.90
9730;DHT22;4904;49.152;11.004;2023-01-29T01:05:47;-0.30;99.90
9730;DHT22;4904;49.152;11.004;2023-01-29T01:08:15;-0.20;99.90
9730;DHT22;4904;49.152;11.004;2023-01-29T01:11:02;-0.10;99.90
9730;DHT22;4904;49.152;11.004;2023-01-29T01:13:31;0.10;99.90
9730;DHT22;4904;49.152;11.004;2023-01-29T01:15:58;0.10;99.90
9730;DHT22;4904;49.152;11.004;2023-01-29T01:18:30;0.20;99.90
9730;DHT22;4904;49.152;11.004;2023-01-29T01:20:57;0.20;99.90
9730;DHT22;4904;49.152;11.004;2023-01-29T01:23:27;0.30;99.90
9730;DHT22;4904;49.152;11.004;2023-01-29T01:25:55;0.20;99.90
9730;DHT22;4904;49.152;11.004;2023-01-29T01:28:22;0.20;99.90
9730;DHT22;4904;49.152;11.004;2023-01-29T01:30:49;0.30;99.90
9730;DHT22;4904;49.152;11.004;2023-01-29T01:33:16;0.30;99.90
9730;DHT22;4904;49.152;11.004;2023-01-29T01:35:43;0.40;99.90
9730;DHT22;4904;49.152;11.004;2023-01-29T01:38:10;0.40;99.90
9730;DHT22;4904;49.152;11.004;2023-01-29T01:40:43;0.40;99.90
9730;DHT22;4904;49.152;11.004;2023-01-29T01:43:11;0.40;99.90
9730;DHT22;4904;49.152;11.004;2023-01-29T01:45:38;0.20;99.90
9730;DHT22;4904;49.152;11.004;2023-01-29T01:48:07;0.30;99.90
9730;DHT22;4904;49.152;11.004;2023-01-29T01:50:40;0.30;99.90
9730;DHT22;4904;49.152;11.004;2023-01-29T01:53:10;0.30;99.90
9730;DHT22;4904;49.152;11.004;2023-01-29T01:55:42;0.30;99.90
9730;DHT22;4904;49.152;11.004;2023-01-29T01:58:13;0.30;99.90
9730;DHT22;4904;49.152;11.004;2023-01-29T02:00:42;0.20;99.90
9730;DHT22;4904;49.152;11.004;2023-01-29T02:03:09;0.10;99.90
9730;DHT22;4904;49.152;11.004;2023-01-29T02:05:55;0.10;99.90
9730;DHT22;4904;49.152;11.004;2023-01-29T02:08:46;0.00;99.90
9730;DHT22;4904;49.152;11.004;2023-01-29T02:11:35;-0.20;99.90
9730;DHT22;4904;49.152;11.004;2023-01-29T02:14:02;-0.20;99.90
9730;DHT22;4904;49.152;11.004;2023-01-29T02:16:29;-0.40;99.90
9730;DHT22;4904;49.152;11.004;2023-01-29T02:18:56;-0.60;99.90
9730;DHT22;4904;49.152;11.004;2023-01-29T02:21:40;-0.60;99.90
9730;DHT22;4904;49.152;11.004;2023-01-29T02:24:25;-0.40;99.90
9730;DHT22;4904;49.152;11.004;2023-01-29T02:27:04;-0.40;99.90
9730;DHT22;4904;49.152;11.004;2023-01-29T02:29:41;-0.40;99.90
9730;DHT22;4904;49.152;11.004;2023-01-29T02:32:17;-0.30;99.90
9730;DHT22;4904;49.152;11.004;2023-01-29T02:34:52;-0.30;99.90
9730;DHT22;4904;49.152;11.004;2023-01-29T02:37:46;-0.20;99.90
9730;DHT22;4904;49.152;11.004;2023-01-29T02:40:25;-0.20;99.90
9730;DHT22;4904;49.152;11.004;2023-01-29T02:43:00;-0.10;99.90
9730;DHT22;4904;49.152;11.004;2023-01-29T02:45:34;-0.10;99.90
9730;DHT22;4904;49.152;11.004;2023-01-29T02:48:04;-0.40;99.90
9730;DHT22;4904;49.152;11.004;2023-01-29T02:50:36;-0.60;99.90
9730;DHT22;4904;49.152;11.004;2023-01-29T02:53:08;-0.50;99.90
9730;DHT22;4904;49.152;11.004;2023-01-29T02:55:41;-0.50;99.90
9730;DHT22;4904;49.152;11.004;2023-01-29T02:58:13;-0.50;99.90
9730;DHT22;4904;49.152;11.004;2023-01-29T03:00:45;-0.60;99.90
9730;DHT22;4904;49.152;11.004;2023-01-29T03:03:16;-0.70;99.90
9730;DHT22;4904;49.152;11.004;2023-01-29T03:05:50;-1.00;99.90
9730;DHT22;4904;49.152;11.004;2023-01-29T03:08:25;-1.10;99.90
9730;DHT22;4904;49.152;11.004;2023-01-29T03:11:04;-1.20;99.90
9730;DHT22;4904;49.152;11.004;2023-01-29T03:13:37;-1.20;99.90
9730;DHT22;4904;49.152;11.004;2023-01-29T03:16:10;-1.20;99.90
9730;DHT22;4904;49.152;11.004;2023-01-29T03:18:42;-1.20;99.90
9730;DHT22;4904;49.152;11.004;2023-01-29T03:21:14;-1.20;99.90
9730;DHT22;4904;49.152;11.004;2023-01-29T03:24:00;-1.10;99.90
9730;DHT22;4904;49.152;11.004;2023-01-29T03:26:45;-1.10;99.90
9730;DHT22;4904;49.152;11.004;2023-01-29T03:29:31;-1.20;99.90
9730;DHT22;4904;49.152;11.004;2023-01-29T03:32:20;-1.20;99.90
9730;DHT22;4904;49.152;11.004;2023-01-29T03:34:52;-1.20;99.90
9730;DHT22;4904;49.152;11.004;2023-01-29T03:37:26;-1.30;99.90
9730;DHT22;4904;49.152;11.004;2023-01-29T03:39:55;-1.40;99.90
9730;DHT22;4904;49.152;11.004;2023-01-29T03:42:26;-1.40;99.90
9730;DHT22;4904;49.152;11.004;2023-01-29T03:44:59;-1.40;99.90
9730;DHT22;4904;49.152;11.004;2023-01-29T03:47:40;-1.30;99.90
9730;DHT22;4904;49.152;11.004;2023-01-29T03:50:14;-1.30;99.90
9730;DHT22;4904;49.152;11.004;2023-01-29T03:52:49;-1.30;99.90
9730;DHT22;4904;49.152;11.004;2023-01-29T03:55:20;-1.20;99.90
9730;DHT22;4904;49.152;11.004;2023-01-29T03:57:53;-1.20;99.90
9730;DHT22;4904;49.152;11.004;2023-01-29T04:00:24;-1.10;99.90
9730;DHT22;4904;49.152;11.004;2023-01-29T04:03:02;-1.10;99.90
9730;DHT22;4904;49.152;11.004;2023-01-29T04:05:36;-1.30;99.90
9730;DHT22;4904;49.152;11.004;2023-01-29T04:08:10;-1.40;99.90
9730;DHT22;4904;49.152;11.004;2023-01-29T04:10:40;-1.40;99.90
9730;DHT22;4904;49.152;11.004;2023-01-29T04:13:10;-1.30;99.90
9730;DHT22;4904;49.152;11.004;2023-01-29T04:15:41;-1.40;99.90
9730;DHT22;4904;49.152;11.004;2023-01-29T04:18:09;-1.50;99.90
9730;DHT22;4904;49.152;11.004;2023-01-29T04:20:37;-1.60;99.90
9730;DHT22;4904;49.152;11.004;2023-01-29T04:23:06;-1.60;99.90
9730;DHT22;4904;49.152;11.004;2023-01-29T04:25:40;-1.70;99.90
9730;DHT22;4904;49.152;11.004;2023-01-29T04:28:13;-1.70;99.90
9730;DHT22;4904;49.152;11.004;2023-01-29T04:30:47;-1.80;99.90
9730;DHT22;4904;49.152;11.004;2023-01-29T04:33:28;-1.70;99.90
9730;DHT22;4904;49.152;11.004;2023-01-29T04:36:07;-1.80;99.90
9730;DHT22;4904;49.152;11.004;2023-01-29T04:38:49;-1.80;99.90
9730;DHT22;4904;49.152;11.004;2023-01-29T04:41:23;-1.80;99.90
9730;DHT22;4904;49.152;11.004;2023-01-29T04:43:59;-1.80;99.90
9730;DHT22;4904;49.152;11.004;2023-01-29T04:46:33;-1.80;99.90
9730;DHT22;4904;49.152;11.004;2023-01-29T04:49:13;-1.90;99.90
9730;DHT22;4904;49.152;11.004;2023-01-29T04:51:50;-2.00;99.90
9730;DHT22;4904;49.152;11.004;2023-01-29T04:54:27;-2.00;99.90
9730;DHT22;4904;49.152;11.004;2023-01-29T04:57:00;-2.00;99.90
9730;DHT22;4904;49.152;11.004;2023-01-29T04:59:32;-1.90;99.90
9730;DHT22;4904;49.152;11.004;2023-01-29T05:02:01;-1.90;99.90
9730;DHT22;4904;49.152;11.004;2023-01-29T05:04:32;-1.90;99.90
9730;DHT22;4904;49.152;11.004;2023-01-29T05:07:01;-2.00;99.90
9730;DHT22;4904;49.152;11.004;2023-01-29T05:09:31;-2.00;99.90
9730;DHT22;4904;49.152;11.004;2023-01-29T05:12:00;-2.00;99.90
9730;DHT22;4904;49.152;11.004;2023-01-29T05:14:29;-2.00;99.90
9730;DHT22;4904;49.152;11.004;2023-01-29T05:17:00;-2.10;99.90
9730;DHT22;4904;49.152;11.004;2023-01-29T05:19:28;-2.10;99.90
9730;DHT22;4904;49.152;11.004;2023-01-29T05:21:57;-2.20;99.90
9730;DHT22;4904;49.152;11.004;2023-01-29T05:24:25;-2.20;99.90
9730;DHT22;4904;49.152;11.004;2023-01-29T05:26:53;-2.20;99.90
9730;DHT22;4904;49.152;11.004;2023-01-29T05:29:38;-2.20;99.90
9730;DHT22;4904;49.152;11.004;2023-01-29T05:32:07;-2.20;99.90
9730;DHT22;4904;49.152;11.004;2023-01-29T05:34:34;-2.20;99.90
9730;DHT22;4904;49.152;11.004;2023-01-29T05:37:02;-2.30;99.90
9730;DHT22;4904;49.152;11.004;2023-01-29T05:39:29;-2.40;99.90
9730;DHT22;4904;49.152;11.004;2023-01-29T05:41:56;-2.40;99.90
9730;DHT22;4904;49.152;11.004;2023-01-29T05:44:23;-2.30;99.90
9730;DHT22;4904;49.152;11.004;2023-01-29T05:46:50;-2.30;99.90
9730;DHT22;4904;49.152;11.004;2023-01-29T05:49:17;-2.30;99.90
9730;DHT22;4904;49.152;11.004;2023-01-29T05:51:45;-2.30;99.90
9730;DHT22;4904;49.152;11.004;2023-01-29T05:54:13;-2.30;99.90
9730;DHT22;4904;49.152;11.004;2023-01-29T05:56:40;-2.40;99.90
9730;DHT22;4904;49.152;11.004;2023-01-29T05:59:07;-2.50;99.90
9730;DHT22;4904;49.152;11.004;2023-01-29T06:01:33;-2.50;99.90
9730;DHT22;4904;49.152;11.004;2023-01-29T06:04:00;-2.50;99.90
9730;DHT22;4904;49.152;11.004;2023-01-29T06:06:27;-2.60;99.90
9730;DHT22;4904;49.152;11.004;2023-01-29T06:08:54;-2.60;99.90
9730;DHT22;4904;49.152;11.004;2023-01-29T06:11:23;-2.60;99.90
9730;DHT22;4904;49.152;11.004;2023-01-29T06:13:50;-2.50;99.90
9730;DHT22;4904;49.152;11.004;2023-01-29T06:16:16;-2.40;99.90
9730;DHT22;4904;49.152;11.004;2023-01-29T06:18:43;-2.40;99.90
9730;DHT22;4904;49.152;11.004;2023-01-29T06:21:12;-2.50;99.90
9730;DHT22;4904;49.152;11.004;2023-01-29T06:23:39;-2.50;99.90
9730;DHT22;4904;49.152;11.004;2023-01-29T06:26:09;-2.50;99.90
9730;DHT22;4904;49.152;11.004;2023-01-29T06:28:37;-2.50;99.90
9730;DHT22;4904;49.152;11.004;2023-01-29T06:31:05;-2.60;99.90
9730;DHT22;4904;49.152;11.004;2023-01-29T06:33:32;-2.60;99.90
9730;DHT22;4904;49.152;11.004;2023-01-29T06:36:01;-2.60;99.90
9730;DHT22;4904;49.152;11.004;2023-01-29T06:38:29;-2.70;99.90
9730;DHT22;4904;49.152;11.004;2023-01-29T06:40:56;-2.70;99.90
9730;DHT22;4904;49.152;11.004;2023-01-29T06:43:23;-2.70;99.90
9730;DHT22;4904;49.152;11.004;2023-01-29T06:45:53;-2.70;99.90
9730;DHT22;4904;49.152;11.004;2023-01-29T06:48:21;-2.60;99.90
9730;DHT22;4904;49.152;11.004;2023-01-29T06:50:48;-2.60;99.90
9730;DHT22;4904;49.152;11.004;2023-01-29T06:53:15;-2.60;99.90
9730;DHT22;4904;49.152;11.004;2023-01-29T06:55:45;-2.40;99.90
9730;DHT22;4904;49.152;11.004;2023-01-29T06:58:16;-2.50;99.90
9730;DHT22;4904;49.152;11.004;2023-01-29T07:00:43;-2.50;99.90
9730;DHT22;4904;49.152;11.004;2023-01-29T07:03:11;-2.50;99.90
9730;DHT22;4904;49.152;11.004;2023-01-29T07:05:38;-2.50;99.90
9730;DHT22;4904;49.152;11.004;2023-01-29T07:08:05;-2.50;99.90
9730;DHT22;4904;49.152;11.004;2023-01-29T07:10:34;-2.40;99.90
9730;DHT22;4904;49.152;11.004;2023-01-29T07:13:01;-2.40;99.90
9730;DHT22;4904;49.152;11.004;2023-01-29T07:15:27;-2.40;99.90
9730;DHT22;4904;49.152;11.004;2023-01-29T07:17:56;-2.40;99.90
9730;DHT22;4904;49.152;11.004;2023-01-29T07:20:24;-2.30;99.90
9730;DHT22;4904;49.152;11.004;2023-01-29T07:22:51;-2.20;99.90
9730;DHT22;4904;49.152;11.004;2023-01-29T07:25:19;-2.00;99.90
9730;DHT22;4904;49.152;11.004;2023-01-29T07:27:46;-2.20;99.90
9730;DHT22;4904;49.152;11.004;2023-01-29T07:30:14;-2.30;99.90
9730;DHT22;4904;49.152;11.004;2023-01-29T07:32:42;-2.20;99.90
9730;DHT22;4904;49.152;11.004;2023-01-29T07:35:09;-2.10;99.90
9730;DHT22;4904;49.152;11.004;2023-01-29T07:37:37;-2.10;99.90
9730;DHT22;4904;49.152;11.004;2023-01-29T07:40:05;-2.00;99.90
9730;DHT22;4904;49.152;11.004;2023-01-29T07:42:36;-2.00;99.90
9730;DHT22;4904;49.152;11.004;2023-01-29T07:45:05;-1.90;99.90
9730;DHT22;4904;49.152;11.004;2023-01-29T07:47:32;-1.90;99.90
9730;DHT22;4904;49.152;11.004;2023-01-29T07:49:59;-1.90;99.90
9730;DHT22;4904;49.152;11.004;2023-01-29T07:52:28;-2.00;99.90
9730;DHT22;4904;49.152;11.004;2023-01-29T07:54:58;-2.10;99.90
9730;DHT22;4904;49.152;11.004;2023-01-29T07:57:26;-2.10;99.90
9730;DHT22;4904;49.152;11.004;2023-01-29T07:59:53;-2.10;99.90
9730;DHT22;4904;49.152;11.004;2023-01-29T08:02:20;-2.20;99.90
9730;DHT22;4904;49.152;11.004;2023-01-29T08:04:46;-2.20;99.90
9730;DHT22;4904;49.152;11.004;2023-01-29T08:07:13;-2.10;99.90
9730;DHT22;4904;49.152;11.004;2023-01-29T08:09:40;-2.10;99.90
9730;DHT22;4904;49.152;11.004;2023-01-29T08:12:08;-2.00;99.90
9730;DHT22;4904;49.152;11.004;2023-01-29T08:14:35;-2.00;99.90
9730;DHT22;4904;49.152;11.004;2023-01-29T08:17:02;-2.10;99.90
9730;DHT22;4904;49.152;11.004;2023-01-29T08:19:29;-2.10;99.90
9730;DHT22;4904;49.152;11.004;2023-01-29T08:21:56;-2.20;99.90
9730;DHT22;4904;49.152;11.004;2023-01-29T08:24:23;-2.10;99.90
9730;DHT22;4904;49.152;11.004;2023-01-29T08:26:50;-2.20;99.90
9730;DHT22;4904;49.152;11.004;2023-01-29T08:29:18;-2.20;99.90
9730;DHT22;4904;49.152;11.004;2023-01-29T08:31:45;-2.20;99.90
9730;DHT22;4904;49.152;11.004;2023-01-29T08:34:12;-2.30;99.90
9730;DHT22;4904;49.152;11.004;2023-01-29T08:36:39;-2.20;99.90
9730;DHT22;4904;49.152;11.004;2023-01-29T08:39:06;-2.10;99.90
9730;DHT22;4904;49.152;11.004;2023-01-29T08:41:33;-2.10;99.90
9730;DHT22;4904;49.152;11.004;2023-01-29T08:44:00;-2.10;99.90
9730;DHT22;4904;49.152;11.004;2023-01-29T08:46:30;-2.10;99.90
9730;DHT22;4904;49.152;11.004;2023-01-29T08:48:57;-2.10;99.90
9730;DHT22;4904;49.152;11.004;2023-01-29T08:51:25;-2.00;99.90
9730;DHT22;4904;49.152;11.004;2023-01-29T08:53:52;-2.00;99.90
9730;DHT22;4904;49.152;11.004;2023-01-29T08:56:19;-2.10;99.90
9730;DHT22;4904;49.152;11.004;2023-01-29T08:58:46;-2.00;99.90
9730;DHT22;4904;49.152;11.004;2023-01-29T09:01:13;-2.00;99.90
9730;DHT22;4904;49.152;11.004;2023-01-29T09:03:41;-2.00;99.90
9730;DHT22;4904;49.152;11.004;2023-01-29T09:06:10;-2.00;99.90
9730;DHT22;4904;49.152;11.004;2023-01-29T09:08:38;-2.00;99.90
9730;DHT22;4904;49.152;11.004;2023-01-29T09:11:05;-2.00;99.90
9730;DHT22;4904;49.152;11.004;2023-01-29T09:13:33;-2.00;99.90
9730;DHT22;4904;49.152;11.004;2023-01-29T09:16:01;-2.00;99.90
9730;DHT22;4904;49.152;11.004;2023-01-29T09:18:29;-1.90;99.90
9730;DHT22;4904;49.152;11.004;2023-01-29T09:20:57;-1.80;99.90
9730;DHT22;4904;49.152;11.004;2023-01-29T09:23:26;-1.90;99.90
9730;DHT22;4904;49.152;11.004;2023-01-29T09:25:54;-2.20;99.90
9730;DHT22;4904;49.152;11.004;2023-01-29T09:28:21;-2.20;99.90
9730;DHT22;4904;49.152;11.004;2023-01-29T09:30:48;-2.20;99.90
9730;DHT22;4904;49.152;11.004;2023-01-29T09:33:15;-2.30;99.90
9730;DHT22;4904;49.152;11.004;2023-01-29T09:35:43;-2.20;99.90
9730;DHT22;4904;49.152;11.004;2023-01-29T09:38:13;-2.20;99.90
9730;DHT22;4904;49.152;11.004;2023-01-29T09:40:49;-2.20;99.90
9730;DHT22;4904;49.152;11.004;2023-01-29T09:43:21;-2.20;99.90
9730;DHT22;4904;49.152;11.004;2023-01-29T09:45:53;-2.10;99.90
9730;DHT22;4904;49.152;11.004;2023-01-29T09:48:22;-2.10;99.90
9730;DHT22;4904;49.152;11.004;2023-01-29T09:50:52;-2.00;99.90
9730;DHT22;4904;49.152;11.004;2023-01-29T09:53:26;-1.80;99.90
9730;DHT22;4904;49.152;11.004;2023-01-29T09:56:00;-1.70;99.90
9730;DHT22;4904;49.152;11.004;2023-01-29T09:58:31;-1.70;99.90
9730;DHT22;4904;49.152;11.004;2023-01-29T10:01:05;-1.60;99.90
9730;DHT22;4904;49.152;11.004;2023-01-29T10:03:54;-1.50;99.90
9730;DHT22;4904;49.152;11.004;2023-01-29T10:06:35;-1.40;99.90
9730;DHT22;4904;49.152;11.004;2023-01-29T10:12:15;-1.40;99.90
9730;DHT22;4904;49.152;11.004;2023-01-29T10:14:55;-1.30;99.90
9730;DHT22;4904;49.152;11.004;2023-01-29T10:17:40;-1.30;99.90
9730;DHT22;4904;49.152;11.004;2023-01-29T10:20:30;-1.20;99.90
9730;DHT22;4904;49.152;11.004;2023-01-29T10:23:22;-1.30;99.90
9730;DHT22;4904;49.152;11.004;2023-01-29T10:25:49;-1.20;99.90
9730;DHT22;4904;49.152;11.004;2023-01-29T10:28:22;-1.20;99.90
9730;DHT22;4904;49.152;11.004;2023-01-29T10:30:55;-1.30;99.90
9730;DHT22;4904;49.152;11.004;2023-01-29T10:33:26;-1.20;99.90
9730;DHT22;4904;49.152;11.004;2023-01-29T10:35:59;-1.20;99.90
9730;DHT22;4904;49.152;11.004;2023-01-29T10:38:36;-1.10;99.90
9730;DHT22;4904;49.152;11.004;2023-01-29T10:41:16;-0.90;99.90
9730;DHT22;4904;49.152;11.004;2023-01-29T10:43:58;-0.90;99.90
9730;DHT22;4904;49.152;11.004;2023-01-29T10:46:38;-1.00;99.90
9730;DHT22;4904;49.152;11.004;2023-01-29T10:49:17;-1.00;99.90
9730;DHT22;4904;49.152;11.004;2023-01-29T10:52:01;-1.00;99.90
9730;DHT22;4904;49.152;11.004;2023-01-29T10:54:44;-1.10;99.90
9730;DHT22;4904;49.152;11.004;2023-01-29T10:57:33;-1.10;99.90
9730;DHT22;4904;49.152;11.004;2023-01-29T11:02:42;-1.20;99.90
9730;DHT22;4904;49.152;11.004;2023-01-29T11:05:19;-1.10;99.90
9730;DHT22;4904;49.152;11.004;2023-01-29T11:07:54;-1.00;99.90
9730;DHT22;4904;49.152;11.004;2023-01-29T11:10:24;-0.80;99.90
9730;DHT22;4904;49.152;11.004;2023-01-29T11:12:52;-0.60;99.90
9730;DHT22;4904;49.152;11.004;2023-01-29T11:15:24;-0.70;99.90
9730;DHT22;4904;49.152;11.004;2023-01-29T11:18:05;-0.60;99.90
9730;DHT22;4904;49.152;11.004;2023-01-29T11:20:35;-0.50;99.90
9730;DHT22;4904;49.152;11.004;2023-01-29T11:23:02;-0.60;99.90
9730;DHT22;4904;49.152;11.004;2023-01-29T11:25:29;-0.60;99.90
9730;DHT22;4904;49.152;11.004;2023-01-29T11:27:59;-0.60;99.90
9730;DHT22;4904;49.152;11.004;2023-01-29T11:30:30;-0.90;99.90
9730;DHT22;4904;49.152;11.004;2023-01-29T11:33:06;-1.10;99.90
9730;DHT22;4904;49.152;11.004;2023-01-29T11:35:34;-1.00;99.90
9730;DHT22;4904;49.152;11.004;2023-01-29T11:38:17;-1.00;99.90
9730;DHT22;4904;49.152;11.004;2023-01-29T11:40:44;-0.90;99.90
9730;DHT22;4904;49.152;11.004;2023-01-29T11:43:27;-0.80;99.90
9730;DHT22;4904;49.152;11.004;2023-01-29T11:45:57;-0.90;99.90
9730;DHT22;4904;49.152;11.004;2023-01-29T11:48:32;-0.80;99.90
9730;DHT22;4904;49.152;11.004;2023-01-29T11:50:59;-0.80;99.90
9730;DHT22;4904;49.152;11.004;2023-01-29T11:53:35;-0.70;99.90
9730;DHT22;4904;49.152;11.004;2023-01-29T11:56:06;-0.60;99.90
9730;DHT22;4904;49.152;11.004;2023-01-29T11:58:41;-0.60;99.90
9730;DHT22;4904;49.152;11.004;2023-01-29T12:01:10;-0.50;99.90
9730;DHT22;4904;49.152;11.004;2023-01-29T12:03:41;-0.60;99.90
9730;DHT22;4904;49.152;11.004;2023-01-29T12:06:17;-0.60;99.90
9730;DHT22;4904;49.152;11.004;2023-01-29T12:08:53;-0.60;99.90
9730;DHT22;4904;49.152;11.004;2023-01-29T12:11:24;-0.50;99.90
9730;DHT22;4904;49.152;11.004;2023-01-29T12:13:53;-0.60;99.90
9730;DHT22;4904;49.152;11.004;2023-01-29T12:16:25;-0.50;99.90
9730;DHT22;4904;49.152;11.004;2023-01-29T12:18:55;-0.50;99.90
9730;DHT22;4904;49.152;11.004;2023-01-29T12:21:29;-0.40;99.90
9730;DHT22;4904;49.152;11.004;2023-01-29T12:24:02;-0.30;99.90
9730;DHT22;4904;49.152;11.004;2023-01-29T12:26:35;-0.40;99.90
9730;DHT22;4904;49.152;11.004;2023-01-29T12:29:15;-0.30;99.90
9730;DHT22;4904;49.152;11.004;2023-01-29T12:31:55;-0.20;99.90
9730;DHT22;4904;49.152;11.004;2023-01-29T12:34:34;0.00;99.90
9730;DHT22;4904;49.152;11.004;2023-01-29T12:37:10;-0.30;99.90
9730;DHT22;4904;49.152;11.004;2023-01-29T12:39:37;-0.40;99.90
9730;DHT22;4904;49.152;11.004;2023-01-29T12:42:09;-0.20;99.90
9730;DHT22;4904;49.152;11.004;2023-01-29T12:44:43;-0.20;99.90
9730;DHT22;4904;49.152;11.004;2023-01-29T12:47:17;-0.10;99.90
9730;DHT22;4904;49.152;11.004;2023-01-29T12:49:49;0.00;99.90
9730;DHT22;4904;49.152;11.004;2023-01-29T12:52:20;0.00;99.90
9730;DHT22;4904;49.152;11.004;2023-01-29T12:54:52;-0.10;99.90
9730;DHT22;4904;49.152;11.004;2023-01-29T12:57:23;-0.10;99.90
9730;DHT22;4904;49.152;11.004;2023-01-29T12:59:54;-0.20;99.90
9730;DHT22;4904;49.152;11.004;2023-01-29T13:02:31;-0.40;99.90
9730;DHT22;4904;49.152;11.004;2023-01-29T13:05:02;-0.50;99.90
9730;DHT22;4904;49.152;11.004;2023-01-29T13:07:32;-0.50;99.90
9730;DHT22;4904;49.152;11.004;2023-01-29T13:10:06;-0.40;99.90
9730;DHT22;4904;49.152;11.004;2023-01-29T13:12:36;-0.40;99.90
9730;DHT22;4904;49.152;11.004;2023-01-29T13:15:15;-0.40;99.90
9730;DHT22;4904;49.152;11.004;2023-01-29T13:17:46;-0.30;99.90
9730;DHT22;4904;49.152;11.004;2023-01-29T13:20:18;-0.20;99.90
9730;DHT22;4904;49.152;11.004;2023-01-29T13:22:47;-0.10;99.90
9730;DHT22;4904;49.152;11.004;2023-01-29T13:25:17;-0.10;99.90
9730;DHT22;4904;49.152;11.004;2023-01-29T13:27:44;-0.20;99.90
9730;DHT22;4904;49.152;11.004;2023-01-29T13:30:24;-0.20;99.90
9730;DHT22;4904;49.152;11.004;2023-01-29T13:32:54;0.00;99.90
9730;DHT22;4904;49.152;11.004;2023-01-29T13:35:34;0.00;99.90
9730;DHT22;4904;49.152;11.004;2023-01-29T13:38:03;0.00;99.90
9730;DHT22;4904;49.152;11.004;2023-01-29T13:40:31;0.00;99.90
9730;DHT22;4904;49.152;11.004;2023-01-29T13:43:00;0.10;99.90
9730;DHT22;4904;49.152;11.004;2023-01-29T13:45:33;0.20;99.90
9730;DHT22;4904;49.152;11.004;2023-01-29T13:48:11;0.20;99.90
9730;DHT22;4904;49.152;11.004;2023-01-29T13:50:44;0.20;99.90
9730;DHT22;4904;49.152;11.004;2023-01-29T13:53:20;0.20;99.90
9730;DHT22;4904;49.152;11.004;2023-01-29T13:55:48;0.10;99.90
9730;DHT22;4904;49.152;11.004;2023-01-29T13:58:16;0.10;99.90
9730;DHT22;4904;49.152;11.004;2023-01-29T14:00:52;0.10;99.90
9730;DHT22;4904;49.152;11.004;2023-01-29T14:03:56;0.10;99.90
9730;DHT22;4904;49.152;11.004;2023-01-29T14:06:44;0.00;99.90
9730;DHT22;4904;49.152;11.004;2023-01-29T14:12:36;0.00;99.90
9730;DHT22;4904;49.152;11.004;2023-01-29T14:15:23;0.10;99.90
9730;DHT22;4904;49.152;11.004;2023-01-29T14:17:58;0.10;99.90
9730;DHT22;4904;49.152;11.004;2023-01-29T14:20:31;0.10;99.90
9730;DHT22;4904;49.152;11.004;2023-01-29T14:22:59;0.10;99.90
9730;DHT22;4904;49.152;11.004;2023-01-29T14:25:29;0.20;99.90
9730;DHT22;4904;49.152;11.004;2023-01-29T14:27:57;0.30;99.90
9730;DHT22;4904;49.152;11.004;2023-01-29T14:30:29;0.40;99.90
9730;DHT22;4904;49.152;11.004;2023-01-29T14:32:56;0.40;99.90
9730;DHT22;4904;49.152;11.004;2023-01-29T14:35:25;0.40;99.90
9730;DHT22;4904;49.152;11.004;2023-01-29T14:37:58;0.30;99.90
9730;DHT22;4904;49.152;11.004;2023-01-29T14:40:28;0.30;99.90
9730;DHT22;4904;49.152;11.004;2023-01-29T14:42:58;0.20;99.90
9730;DHT22;4904;49.152;11.004;2023-01-29T14:45:28;0.10;99.90
9730;DHT22;4904;49.152;11.004;2023-01-29T14:48:01;0.10;99.90
9730;DHT22;4904;49.152;11.004;2023-01-29T14:50:44;0.00;99.90
9730;DHT22;4904;49.152;11.004;2023-01-29T14:53:17;0.10;99.90
9730;DHT22;4904;49.152;11.004;2023-01-29T14:55:51;0.10;99.90
9730;DHT22;4904;49.152;11.004;2023-01-29T14:58:24;0.00;99.90
9730;DHT22;4904;49.152;11.004;2023-01-29T15:00:54;0.00;99.90
9730;DHT22;4904;49.152;11.004;2023-01-29T15:03:29;0.00;99.90
9730;DHT22;4904;49.152;11.004;2023-01-29T15:06:01;0.00;99.90
9730;DHT22;4904;49.152;11.004;2023-01-29T15:08:36;0.00;99.90
9730;DHT22;4904;49.152;11.004;2023-01-29T15:11:10;0.10;99.90
9730;DHT22;4904;49.152;11.004;2023-01-29T15:17:00;0.10;99.90
9730;DHT22;4904;49.152;11.004;2023-01-29T15:19:32;0.00;99.90
9730;DHT22;4904;49.152;11.004;2023-01-29T15:22:04;0.00;99.90
9730;DHT22;4904;49.152;11.004;2023-01-29T15:24:32;-0.10;99.90
9730;DHT22;4904;49.152;11.004;2023-01-29T15:27:00;-0.10;99.90
9730;DHT22;4904;49.152;11.004;2023-01-29T15:29:27;0.00;99.90
9730;DHT22;4904;49.152;11.004;2023-01-29T15:31:55;0.00;99.90
9730;DHT22;4904;49.152;11.004;2023-01-29T15:34:22;0.00;99.90
9730;DHT22;4904;49.152;11.004;2023-01-29T15:36:49;0.00;99.90
9730;DHT22;4904;49.152;11.004;2023-01-29T15:39:17;0.00;99.90
9730;DHT22;4904;49.152;11.004;2023-01-29T15:41:47;0.10;99.90
9730;DHT22;4904;49.152;11.004;2023-01-29T15:44:18;0.10;99.90
9730;DHT22;4904;49.152;11.004;2023-01-29T15:46:49;0.20;99.90
9730;DHT22;4904;49.152;11.004;2023-01-29T15:49:22;0.20;99.90
9730;DHT22;4904;49.152;11.004;2023-01-29T15:51:54;0.20;99.90
9730;DHT22;4904;49.152;11.004;2023-01-29T15:54:23;0.20;99.90
9730;DHT22;4904;49.152;11.004;2023-01-29T15:56:53;0.10;99.90
9730;DHT22;4904;49.152;11.004;2023-01-29T15:59:22;0.10;99.90
9730;DHT22;4904;49.152;11.004;2023-01-29T16:01:50;0.10;99.90
9730;DHT22;4904;49.152;11.004;2023-01-29T16:04:21;0.00;99.90
9730;DHT22;4904;49.152;11.004;2023-01-29T16:06:51;0.00;99.90
9730;DHT22;4904;49.152;11.004;2023-01-29T16:09:19;0.00;99.90
9730;DHT22;4904;49.152;11.004;2023-01-29T16:11:48;0.00;99.90
9730;DHT22;4904;49.152;11.004;2023-01-29T16:14:20;0.00;99.90
9730;DHT22;4904;49.152;11.004;2023-01-29T16:16:50;0.00;99.90
9730;DHT22;4904;49.152;11.004;2023-01-29T16:19:22;0.10;99.90
9730;DHT22;4904;49.152;11.004;2023-01-29T16:21:53;0.20;99.90
9730;DHT22;4904;49.152;11.004;2023-01-29T16:24:22;0.30;99.90
9730;DHT22;4904;49.152;11.004;2023-01-29T16:26:51;0.30;99.90
9730;DHT22;4904;49.152;11.004;2023-01-29T16:29:29;0.30;99.90